Detroit, Alabama
Current Conditions -  °F | °C
As of 12:15 PM on Friday 28 Nov 2014 (Local Time) from KM40 Reporting Station
Clear Clear  
Wind Chill: 12°   Ceiling: Unl
Heat Index: 12°   Visibility: 9mi
Dew Point:   Wind: 7mph
Humidity: 54%   Direction: 140°SE
Pressure: 30.38"   Gusts: NA
Location:  34.03°N, 88.17°W
Report Text: KM40 281815Z AUTO 14006KT 9SM CLR 12/03 A3038 RMK AO2
Loading
Personal Weather Stations






























Interactive Weather Map New forecast layout! Learn more

10-Day Weather Forecast

Advertisements
Track Severe Weather on mobile